PWSweather.com
Personal Weather Stations
Station Observations

YeovilGB

Lat: 50.949, Lon: -2.627

Elevation: 70

Station Type: Vantage Pro

http://www.yeovil-weather.me.uk/

High Low Average
Temperature 53.3°F11.8°F 39.2°F4.0°F 47.5°F8.6°F
Dew Point 50.8°F10.4°F 36.9°F2.7°F 44.6°F7.0°F
Winds 6.9 mph SW11.1 mph SW Calm Calm 1.2 mph 1.9 mph
Wind Gusts 11.5 mph18.5 mph -- 3.4 mph5.5 mph
Humidity 96% 86% 90%
Pressure 30.36 in1028.10 in 30.16 in1021.30 in -
Precipitation 0.19 in4.80 in - -
Hour Temp Dew Point Humidity Winds Wind Gusts Pressure Precip Precip Rate Daily Precip Total
12:00 AM 39.2°F4.0°C 37.3°F2.9°C 93% Calm Calm -- 30.36 in1028.1 mb - 0.00 in0.0 mm 0.00 in0.0 mm
12:10 AM 39.3°F4.1°C 37.2°F2.9°C 92% Calm Calm -- 30.36 in1028.1 mb - 0.00 in0.0 mm 0.00 in0.0 mm
12:20 AM 39.5°F4.2°C 37.4°F3.0°C 92% Calm Calm -- 30.36 in1028.1 mb - 0.00 in0.0 mm 0.00 in0.0 mm
12:30 AM 39.7°F4.3°C 37.2°F2.9°C 91% Calm Calm -- 30.35 in1027.8 mb - 0.00 in0.0 mm 0.00 in0.0 mm
12:40 AM 39.8°F4.3°C 37.4°F3.0°C 91% Calm Calm -- 30.35 in1027.8 mb - 0.00 in0.0 mm 0.00 in0.0 mm
12:50 AM 39.9°F4.4°C 37.5°F3.1°C 91% Calm Calm -- 30.35 in1027.8 mb - 0.00 in0.0 mm 0.00 in0.0 mm
01:00 AM 39.8°F4.3°C 37.1°F2.8°C 90% Calm Calm -- 30.35 in1027.8 mb - 0.00 in0.0 mm 0.00 in0.0 mm
01:10 AM 39.7°F4.3°C 37.0°F2.8°C 90% Calm Calm -- 30.35 in1027.8 mb - 0.00 in0.0 mm 0.00 in0.0 mm
01:20 AM 39.6°F4.2°C 36.9°F2.7°C 90% Calm Calm -- 30.35 in1027.8 mb - 0.00 in0.0 mm 0.00 in0.0 mm
01:30 AM 39.7°F4.3°C 37.0°F2.8°C 90% Calm Calm -- 30.35 in1027.8 mb - 0.00 in0.0 mm 0.00 in0.0 mm
01:40 AM 39.9°F4.4°C 37.2°F2.9°C 90% Calm Calm -- 30.34 in1027.4 mb - 0.00 in0.0 mm 0.00 in0.0 mm
01:50 AM 40.2°F4.6°C 37.5°F3.1°C 90% Calm Calm -- 30.34 in1027.4 mb - 0.00 in0.0 mm 0.00 in0.0 mm
02:00 AM 40.4°F4.7°C 37.7°F3.2°C 90% Calm Calm -- 30.34 in1027.4 mb - 0.00 in0.0 mm 0.00 in0.0 mm
02:10 AM 40.7°F4.8°C 37.7°F3.2°C 89% Calm Calm -- 30.34 in1027.4 mb - 0.00 in0.0 mm 0.00 in0.0 mm
02:20 AM 40.9°F4.9°C 37.9°F3.3°C 89% Calm Calm -- 30.33 in1027.1 mb - 0.00 in0.0 mm 0.00 in0.0 mm
02:30 AM 41.1°F5.1°C 38.1°F3.4°C 89% Calm Calm -- 30.33 in1027.1 mb - 0.00 in0.0 mm 0.00 in0.0 mm
02:40 AM 41.3°F5.2°C 38.0°F3.3°C 88% Calm Calm -- 30.33 in1027.1 mb - 0.00 in0.0 mm 0.00 in0.0 mm
02:50 AM 41.4°F5.2°C 37.8°F3.2°C 87% Calm Calm -- 30.33 in1027.1 mb - 0.00 in0.0 mm 0.00 in0.0 mm
03:00 AM 41.6°F5.3°C 38.0°F3.3°C 87% Calm Calm -- 30.33 in1027.1 mb - 0.00 in0.0 mm 0.00 in0.0 mm
03:10 AM 41.7°F5.4°C 38.1°F3.4°C 87% Calm Calm -- 30.32 in1026.8 mb - 0.00 in0.0 mm 0.00 in0.0 mm
03:20 AM 41.9°F5.5°C 38.3°F3.5°C 87% Calm Calm -- 30.32 in1026.8 mb - 0.00 in0.0 mm 0.00 in0.0 mm
03:30 AM 42.0°F5.6°C 38.4°F3.6°C 87% Calm Calm -- 30.31 in1026.4 mb - 0.00 in0.0 mm 0.00 in0.0 mm
03:40 AM 42.0°F5.6°C 38.1°F3.4°C 86% Calm Calm -- 30.31 in1026.4 mb - 0.00 in0.0 mm 0.00 in0.0 mm
03:50 AM 42.2°F5.7°C 38.6°F3.7°C 87% Calm Calm -- 30.31 in1026.4 mb - 0.00 in0.0 mm 0.00 in0.0 mm
04:00 AM 42.3°F5.7°C 38.7°F3.7°C 87% Calm Calm -- 30.31 in1026.4 mb - 0.00 in0.0 mm 0.00 in0.0 mm
04:10 AM 42.4°F5.8°C 38.8°F3.8°C 87% Calm Calm -- 30.30 in1026.1 mb - 0.00 in0.0 mm 0.00 in0.0 mm
04:20 AM 42.5°F5.8°C 38.6°F3.7°C 86% Calm Calm -- 30.30 in1026.1 mb - 0.00 in0.0 mm 0.00 in0.0 mm
04:30 AM 42.5°F5.8°C 38.6°F3.7°C 86% Calm Calm -- 30.30 in1026.1 mb - 0.00 in0.0 mm 0.00 in0.0 mm
04:40 AM 42.4°F5.8°C 38.5°F3.6°C 86% Calm Calm -- 30.29 in1025.7 mb - 0.00 in0.0 mm 0.00 in0.0 mm
04:50 AM 42.3°F5.7°C 38.7°F3.7°C 87% Calm Calm 1.2 mph1.9 kmh 30.29 in1025.7 mb - 0.00 in0.0 mm 0.00 in0.0 mm
05:00 AM 42.3°F5.7°C 38.7°F3.7°C 87% Calm Calm -- 30.30 in1026.1 mb - 0.00 in0.0 mm 0.00 in0.0 mm
05:10 AM 42.5°F5.8°C 39.2°F4.0°C 88% Calm Calm -- 30.29 in1025.7 mb - 0.00 in0.0 mm 0.00 in0.0 mm
05:20 AM 42.7°F5.9°C 39.4°F4.1°C 88% 1.2 mph SW1.9 kmh SW 2.3 mph3.7 kmh 30.29 in1025.7 mb - 0.00 in0.0 mm 0.00 in0.0 mm
05:30 AM 42.9°F6.1°C 39.6°F4.2°C 88% 1.2 mph S1.9 kmh S 2.3 mph3.7 kmh 30.29 in1025.7 mb - 0.00 in0.0 mm 0.00 in0.0 mm
05:40 AM 43.0°F6.1°C 39.7°F4.3°C 88% Calm Calm 1.2 mph1.9 kmh 30.29 in1025.7 mb - 0.00 in0.0 mm 0.00 in0.0 mm
05:50 AM 43.2°F6.2°C 39.9°F4.4°C 88% Calm Calm 1.2 mph1.9 kmh 30.28 in1025.4 mb - 0.00 in0.0 mm 0.00 in0.0 mm
06:00 AM 43.3°F6.3°C 40.0°F4.4°C 88% Calm Calm 1.2 mph1.9 kmh 30.27 in1025.1 mb - 0.00 in0.0 mm 0.00 in0.0 mm
06:10 AM 43.3°F6.3°C 40.0°F4.4°C 88% Calm Calm -- 30.28 in1025.4 mb - 0.00 in0.0 mm 0.00 in0.0 mm
06:20 AM 43.4°F6.3°C 40.0°F4.4°C 88% 1.2 mph SW1.9 kmh SW 2.3 mph3.7 kmh 30.28 in1025.4 mb - 0.00 in0.0 mm 0.00 in0.0 mm
06:30 AM 43.4°F6.3°C 40.1°F4.5°C 88% Calm Calm 3.5 mph5.6 kmh 30.28 in1025.4 mb - 0.00 in0.0 mm 0.00 in0.0 mm
06:40 AM 43.4°F6.3°C 40.1°F4.5°C 88% 1.2 mph SW1.9 kmh SW 5.8 mph9.3 kmh 30.28 in1025.4 mb - 0.00 in0.0 mm 0.00 in0.0 mm
06:50 AM 43.5°F6.4°C 40.5°F4.7°C 89% 1.2 mph SW1.9 kmh SW 6.9 mph11.1 kmh 30.27 in1025.1 mb - 0.00 in0.0 mm 0.00 in0.0 mm
07:00 AM 43.7°F6.5°C 40.7°F4.8°C 89% 4.6 mph SW7.4 kmh SW 9.2 mph14.8 kmh 30.27 in1025.1 mb - 0.00 in0.0 mm 0.00 in0.0 mm
07:10 AM 44.0°F6.7°C 41.0°F5.0°C 89% 2.3 mph WSW3.7 kmh WSW 3.5 mph5.6 kmh 30.27 in1025.1 mb - 0.00 in0.0 mm 0.00 in0.0 mm
07:20 AM 44.2°F6.8°C 41.2°F5.1°C 89% 1.2 mph SW1.9 kmh SW 4.6 mph7.4 kmh 30.27 in1025.1 mb - 0.00 in0.0 mm 0.00 in0.0 mm
07:30 AM 44.4°F6.9°C 41.4°F5.2°C 89% 3.5 mph SW5.6 kmh SW 4.6 mph7.4 kmh 30.28 in1025.4 mb - 0.00 in0.0 mm 0.00 in0.0 mm
07:40 AM 44.6°F7.0°C 41.2°F5.1°C 88% 2.3 mph SW3.7 kmh SW 10.4 mph16.7 kmh 30.28 in1025.4 mb - 0.00 in0.0 mm 0.00 in0.0 mm
07:50 AM 44.5°F6.9°C 41.2°F5.1°C 88% 3.5 mph SW5.6 kmh SW 8.1 mph13.0 kmh 30.28 in1025.4 mb - 0.00 in0.0 mm 0.00 in0.0 mm
08:00 AM 44.7°F7.1°C 41.7°F5.4°C 89% Calm Calm 2.3 mph3.7 kmh 30.27 in1025.1 mb - 0.00 in0.0 mm 0.00 in0.0 mm
08:10 AM 45.1°F7.3°C 42.1°F5.6°C 89% 2.3 mph SW3.7 kmh SW 8.1 mph13.0 kmh 30.28 in1025.4 mb - 0.00 in0.0 mm 0.00 in0.0 mm
08:20 AM 45.5°F7.5°C 42.5°F5.8°C 89% 2.3 mph SW3.7 kmh SW 2.3 mph3.7 kmh 30.28 in1025.4 mb - 0.00 in0.0 mm 0.00 in0.0 mm
08:30 AM 45.8°F7.7°C 42.7°F5.9°C 89% 2.3 mph SW3.7 kmh SW 9.2 mph14.8 kmh 30.28 in1025.4 mb - 0.00 in0.0 mm 0.00 in0.0 mm
08:40 AM 46.0°F7.8°C 42.9°F6.1°C 89% 1.2 mph SW1.9 kmh SW 1.2 mph1.9 kmh 30.28 in1025.4 mb - 0.00 in0.0 mm 0.00 in0.0 mm
08:50 AM 46.3°F7.9°C 42.9°F6.1°C 88% 2.3 mph SW3.7 kmh SW 9.2 mph14.8 kmh 30.27 in1025.1 mb - 0.00 in0.0 mm 0.00 in0.0 mm
09:00 AM 46.5°F8.1°C 43.1°F6.2°C 88% Calm Calm 1.2 mph1.9 kmh 30.27 in1025.1 mb - 0.00 in0.0 mm 0.00 in0.0 mm
09:10 AM 46.7°F8.2°C 43.3°F6.3°C 88% Calm Calm 2.3 mph3.7 kmh 30.27 in1025.1 mb - 0.00 in0.0 mm 0.00 in0.0 mm
09:20 AM 47.0°F8.3°C 43.6°F6.4°C 88% Calm Calm 1.2 mph1.9 kmh 30.27 in1025.1 mb - 0.00 in0.0 mm 0.00 in0.0 mm
09:30 AM 47.2°F8.4°C 43.8°F6.6°C 88% Calm Calm 1.2 mph1.9 kmh 30.27 in1025.1 mb - 0.00 in0.0 mm 0.00 in0.0 mm
09:40 AM 47.3°F8.5°C 43.9°F6.6°C 88% Calm Calm -- 30.27 in1025.1 mb - 0.00 in0.0 mm 0.00 in0.0 mm
09:50 AM 47.5°F8.6°C 44.1°F6.7°C 88% 1.2 mph SW1.9 kmh SW 1.2 mph1.9 kmh 30.27 in1025.1 mb - 0.00 in0.0 mm 0.00 in0.0 mm
10:00 AM 47.8°F8.8°C 44.4°F6.9°C 88% Calm Calm 1.2 mph1.9 kmh 30.27 in1025.1 mb - 0.00 in0.0 mm 0.00 in0.0 mm
10:10 AM 48.0°F8.9°C 44.6°F7.0°C 88% 1.2 mph SW1.9 kmh SW 5.8 mph9.3 kmh 30.27 in1025.1 mb - 0.00 in0.0 mm 0.00 in0.0 mm
10:20 AM 48.2°F9.0°C 44.8°F7.1°C 88% 2.3 mph SSW3.7 kmh SSW 1.2 mph1.9 kmh 30.27 in1025.1 mb - 0.00 in0.0 mm 0.00 in0.0 mm
10:30 AM 48.4°F9.1°C 45.0°F7.2°C 88% Calm Calm 1.2 mph1.9 kmh 30.27 in1025.1 mb - 0.00 in0.0 mm 0.00 in0.0 mm
10:40 AM 48.6°F9.2°C 44.9°F7.2°C 87% 2.3 mph SW3.7 kmh SW 8.1 mph13.0 kmh 30.27 in1025.1 mb - 0.00 in0.0 mm 0.00 in0.0 mm
10:50 AM 48.7°F9.3°C 45.0°F7.2°C 87% 2.3 mph SW3.7 kmh SW 8.1 mph13.0 kmh 30.27 in1025.1 mb - 0.00 in0.0 mm 0.00 in0.0 mm
11:00 AM 48.8°F9.3°C 45.1°F7.3°C 87% 3.5 mph SSW5.6 kmh SSW 11.5 mph18.5 kmh 30.27 in1025.1 mb - 0.00 in0.0 mm 0.00 in0.0 mm
11:10 AM 48.8°F9.3°C 45.1°F7.3°C 87% Calm Calm 3.5 mph5.6 kmh 30.27 in1025.1 mb - 0.00 in0.0 mm 0.00 in0.0 mm
11:20 AM 48.9°F9.4°C 45.2°F7.3°C 87% 2.3 mph SSW3.7 kmh SSW 8.1 mph13.0 kmh 30.26 in1024.7 mb - 0.00 in0.0 mm 0.00 in0.0 mm
11:30 AM 48.9°F9.4°C 45.2°F7.3°C 87% 3.5 mph SSW5.6 kmh SSW 4.6 mph7.4 kmh 30.26 in1024.7 mb - 0.00 in0.0 mm 0.00 in0.0 mm
11:40 AM 49.0°F9.4°C 45.3°F7.4°C 87% 2.3 mph SSW3.7 kmh SSW 8.1 mph13.0 kmh 30.26 in1024.7 mb - 0.00 in0.0 mm 0.00 in0.0 mm
11:50 AM 49.2°F9.6°C 45.5°F7.5°C 87% 4.6 mph SW7.4 kmh SW 8.1 mph13.0 kmh 30.25 in1024.4 mb - 0.00 in0.0 mm 0.00 in0.0 mm
12:00 PM 49.6°F9.8°C 46.2°F7.9°C 88% 2.3 mph SW3.7 kmh SW 9.2 mph14.8 kmh 30.24 in1024.0 mb - 0.00 in0.0 mm 0.00 in0.0 mm
12:10 PM 50.0°F10.0°C 46.6°F8.1°C 88% 3.5 mph SSW5.6 kmh SSW 5.8 mph9.3 kmh 30.24 in1024.0 mb - 0.00 in0.0 mm 0.00 in0.0 mm
12:20 PM 50.3°F10.2°C 46.9°F8.3°C 88% 5.8 mph SW9.3 kmh SW 11.5 mph18.5 kmh 30.24 in1024.0 mb - 0.00 in0.0 mm 0.00 in0.0 mm
12:30 PM 50.5°F10.3°C 47.1°F8.4°C 88% 2.3 mph SW3.7 kmh SW 9.2 mph14.8 kmh 30.23 in1023.7 mb - 0.00 in0.0 mm 0.00 in0.0 mm
12:40 PM 50.5°F10.3°C 47.1°F8.4°C 88% 4.6 mph SW7.4 kmh SW 6.9 mph11.1 kmh 30.23 in1023.7 mb - 0.00 in0.0 mm 0.00 in0.0 mm
12:50 PM 50.6°F10.3°C 47.2°F8.4°C 88% 4.6 mph SW7.4 kmh SW 10.4 mph16.7 kmh 30.23 in1023.7 mb - 0.00 in0.0 mm 0.00 in0.0 mm
01:00 PM 50.9°F10.5°C 47.5°F8.6°C 88% 1.2 mph SW1.9 kmh SW -- 30.22 in1023.4 mb - 0.00 in0.0 mm 0.00 in0.0 mm
01:10 PM 51.2°F10.7°C 47.8°F8.8°C 88% 1.2 mph SSW1.9 kmh SSW 6.9 mph11.1 kmh 30.22 in1023.4 mb - 0.00 in0.0 mm 0.00 in0.0 mm
01:20 PM 51.4°F10.8°C 47.7°F8.7°C 87% 1.2 mph SW1.9 kmh SW 5.8 mph9.3 kmh 30.22 in1023.4 mb - 0.00 in0.0 mm 0.00 in0.0 mm
01:30 PM 51.7°F10.9°C 48.0°F8.9°C 87% 3.5 mph SW5.6 kmh SW 11.5 mph18.5 kmh 30.22 in1023.4 mb - 0.00 in0.0 mm 0.00 in0.0 mm
01:40 PM 51.8°F11.0°C 48.1°F8.9°C 87% 4.6 mph SSW7.4 kmh SSW 9.2 mph14.8 kmh 30.21 in1023.0 mb - 0.00 in0.0 mm 0.00 in0.0 mm
01:50 PM 51.9°F11.1°C 48.2°F9.0°C 87% 4.6 mph SSW7.4 kmh SSW 8.1 mph13.0 kmh 30.21 in1023.0 mb - 0.00 in0.0 mm 0.00 in0.0 mm
02:00 PM 51.9°F11.1°C 48.2°F9.0°C 87% 1.2 mph SW1.9 kmh SW -- 30.21 in1023.0 mb - 0.00 in0.0 mm 0.00 in0.0 mm
02:10 PM 52.0°F11.1°C 48.2°F9.0°C 87% 1.2 mph SW1.9 kmh SW -- 30.20 in1022.7 mb - 0.00 in0.0 mm 0.00 in0.0 mm
02:20 PM 52.0°F11.1°C 48.2°F9.0°C 87% 1.2 mph SSW1.9 kmh SSW 8.1 mph13.0 kmh 30.20 in1022.7 mb - 0.00 in0.0 mm 0.00 in0.0 mm
02:30 PM 52.0°F11.1°C 48.3°F9.1°C 87% Calm Calm -- 30.20 in1022.7 mb - 0.00 in0.0 mm 0.00 in0.0 mm
02:40 PM 52.0°F11.1°C 48.6°F9.2°C 88% Calm Calm -- 30.20 in1022.7 mb - 0.00 in0.0 mm 0.00 in0.0 mm
02:50 PM 52.2°F11.2°C 48.8°F9.3°C 88% 2.3 mph SW3.7 kmh SW 8.1 mph13.0 kmh 30.20 in1022.7 mb - 0.00 in0.0 mm 0.00 in0.0 mm
03:00 PM 52.6°F11.4°C 49.1°F9.5°C 88% Calm Calm 9.2 mph14.8 kmh 30.19 in1022.4 mb - 0.00 in0.0 mm 0.00 in0.0 mm
03:10 PM 52.9°F11.6°C 49.4°F9.7°C 88% Calm Calm -- 30.19 in1022.4 mb - 0.00 in0.0 mm 0.00 in0.0 mm
03:20 PM 53.0°F11.7°C 49.5°F9.7°C 88% Calm Calm 4.6 mph7.4 kmh 30.19 in1022.4 mb - 0.00 in0.0 mm 0.00 in0.0 mm
03:30 PM 53.0°F11.7°C 49.5°F9.7°C 88% 5.8 mph SW9.3 kmh SW 8.1 mph13.0 kmh 30.19 in1022.4 mb - 0.00 in0.0 mm 0.00 in0.0 mm
03:40 PM 53.0°F11.7°C 49.5°F9.7°C 88% Calm Calm -- 30.18 in1022.0 mb - 0.00 in0.0 mm 0.00 in0.0 mm
03:50 PM 53.0°F11.7°C 49.5°F9.7°C 88% 2.3 mph SW3.7 kmh SW 5.8 mph9.3 kmh 30.18 in1022.0 mb - 0.00 in0.0 mm 0.00 in0.0 mm
04:00 PM 52.9°F11.6°C 49.4°F9.7°C 88% 1.2 mph SW1.9 kmh SW 3.5 mph5.6 kmh 30.18 in1022.0 mb - 0.00 in0.0 mm 0.00 in0.0 mm
04:10 PM 52.8°F11.6°C 49.3°F9.6°C 88% Calm Calm 8.1 mph13.0 kmh 30.18 in1022.0 mb - 0.00 in0.0 mm 0.00 in0.0 mm
04:20 PM 52.7°F11.5°C 49.6°F9.8°C 89% Calm Calm -- 30.19 in1022.4 mb - 0.00 in0.0 mm 0.00 in0.0 mm
04:30 PM 52.6°F11.4°C 49.5°F9.7°C 89% 1.2 mph SW1.9 kmh SW 8.1 mph13.0 kmh 30.18 in1022.0 mb - 0.00 in0.0 mm 0.00 in0.0 mm
04:40 PM 52.6°F11.4°C 49.4°F9.7°C 89% Calm Calm -- 30.18 in1022.0 mb - 0.00 in0.0 mm 0.00 in0.0 mm
04:50 PM 52.5°F11.4°C 49.4°F9.7°C 89% 3.5 mph SW5.6 kmh SW 5.8 mph9.3 kmh 30.18 in1022.0 mb - 0.00 in0.0 mm 0.00 in0.0 mm
05:00 PM 52.6°F11.4°C 49.4°F9.7°C 89% 3.5 mph SW5.6 kmh SW 9.2 mph14.8 kmh 30.18 in1022.0 mb - 0.00 in0.0 mm 0.00 in0.0 mm
05:10 PM 52.8°F11.6°C 49.6°F9.8°C 89% 2.3 mph SW3.7 kmh SW 10.4 mph16.7 kmh 30.18 in1022.0 mb - 0.00 in0.0 mm 0.00 in0.0 mm
05:20 PM 53.0°F11.7°C 49.8°F9.9°C 89% 5.8 mph SW9.3 kmh SW 10.4 mph16.7 kmh 30.17 in1021.7 mb - 0.00 in0.0 mm 0.00 in0.0 mm
05:30 PM 53.2°F11.8°C 50.0°F10.0°C 89% 3.5 mph SW5.6 kmh SW 10.4 mph16.7 kmh 30.17 in1021.7 mb - 0.00 in0.0 mm 0.00 in0.0 mm
05:40 PM 53.2°F11.8°C 49.8°F9.9°C 88% 6.9 mph SW11.1 kmh SW 11.5 mph18.5 kmh 30.17 in1021.7 mb - 0.00 in0.0 mm 0.00 in0.0 mm
05:50 PM 53.2°F11.8°C 49.7°F9.8°C 88% 6.9 mph WSW11.1 kmh WSW 9.2 mph14.8 kmh 30.17 in1021.7 mb - 0.00 in0.0 mm 0.00 in0.0 mm
06:00 PM 53.3°F11.8°C 49.8°F9.9°C 88% 6.9 mph SW11.1 kmh SW 11.5 mph18.5 kmh 30.17 in1021.7 mb - 0.00 in0.0 mm 0.00 in0.0 mm
06:10 PM 53.3°F11.8°C 50.1°F10.1°C 89% Calm Calm 4.6 mph7.4 kmh 30.17 in1021.7 mb - 0.00 in0.0 mm 0.00 in0.0 mm
06:20 PM 53.2°F11.8°C 50.0°F10.0°C 89% 1.2 mph SW1.9 kmh SW 8.1 mph13.0 kmh 30.17 in1021.7 mb - 0.00 in0.0 mm 0.00 in0.0 mm
06:30 PM 53.1°F11.7°C 50.0°F10.0°C 89% 4.6 mph SW7.4 kmh SW 9.2 mph14.8 kmh 30.17 in1021.7 mb - 0.00 in0.0 mm 0.00 in0.0 mm
06:40 PM 53.0°F11.7°C 50.2°F10.1°C 90% 1.2 mph SW1.9 kmh SW -- 30.17 in1021.7 mb - 0.00 in0.0 mm 0.00 in0.0 mm
06:50 PM 52.9°F11.6°C 50.0°F10.0°C 90% 5.8 mph WSW9.3 kmh WSW 11.5 mph18.5 kmh 30.17 in1021.7 mb - 0.00 in0.0 mm 0.00 in0.0 mm
07:00 PM 52.7°F11.5°C 50.2°F10.1°C 91% Calm Calm -- 30.17 in1021.7 mb - 0.01 in0.3 mm 0.01 in0.3 mm
07:10 PM 52.6°F11.4°C 50.3°F10.2°C 92% Calm Calm -- 30.17 in1021.7 mb - 0.00 in0.0 mm 0.01 in0.3 mm
07:20 PM 52.4°F11.3°C 50.1°F10.1°C 92% Calm Calm -- 30.16 in1021.3 mb - 0.01 in0.3 mm 0.02 in0.5 mm
07:30 PM 52.3°F11.3°C 50.3°F10.2°C 93% Calm Calm 5.8 mph9.3 kmh 30.16 in1021.3 mb - 0.00 in0.0 mm 0.02 in0.5 mm
07:40 PM 52.3°F11.3°C 50.3°F10.2°C 93% 1.2 mph WSW1.9 kmh WSW 8.1 mph13.0 kmh 30.16 in1021.3 mb - 0.00 in0.0 mm 0.02 in0.5 mm
07:50 PM 52.3°F11.3°C 50.6°F10.3°C 94% 1.2 mph SW1.9 kmh SW -- 30.17 in1021.7 mb - 0.01 in0.3 mm 0.02 in0.5 mm
08:00 PM 52.3°F11.3°C 50.6°F10.3°C 94% 2.3 mph WSW3.7 kmh WSW 4.6 mph7.4 kmh 30.17 in1021.7 mb - 0.01 in0.3 mm 0.02 in0.5 mm
08:10 PM 52.3°F11.3°C 50.7°F10.4°C 94% 2.3 mph W3.7 kmh W 4.6 mph7.4 kmh 30.16 in1021.3 mb - 0.01 in0.3 mm 0.03 in0.8 mm
08:20 PM 52.3°F11.3°C 50.6°F10.3°C 94% Calm Calm -- 30.17 in1021.7 mb - 0.02 in0.5 mm 0.04 in1.0 mm
08:30 PM 52.3°F11.3°C 50.6°F10.3°C 94% Calm Calm -- 30.17 in1021.7 mb - 0.03 in0.8 mm 0.07 in1.8 mm
08:40 PM 52.2°F11.2°C 50.8°F10.4°C 95% Calm Calm -- 30.18 in1022.0 mb - 0.02 in0.5 mm 0.09 in2.3 mm
08:50 PM 52.1°F11.2°C 50.7°F10.4°C 95% Calm Calm 2.3 mph3.7 kmh 30.18 in1022.0 mb - 0.00 in0.0 mm 0.09 in2.3 mm
09:00 PM 51.9°F11.1°C 50.5°F10.3°C 95% Calm Calm 2.3 mph3.7 kmh 30.18 in1022.0 mb - 0.01 in0.3 mm 0.10 in2.5 mm
09:10 PM 51.8°F11.0°C 50.4°F10.2°C 95% Calm Calm 3.5 mph5.6 kmh 30.18 in1022.0 mb - 0.00 in0.0 mm 0.10 in2.5 mm
09:20 PM 51.6°F10.9°C 50.3°F10.2°C 95% Calm Calm -- 30.18 in1022.0 mb - 0.01 in0.3 mm 0.11 in2.8 mm
09:30 PM 50.4°F10.2°C 48.7°F9.3°C 94% 1.2 mph N1.9 kmh N 2.3 mph3.7 kmh 30.19 in1022.4 mb - 0.00 in0.0 mm 0.11 in2.8 mm
09:40 PM 49.4°F9.7°C 47.7°F8.7°C 94% Calm Calm -- 30.18 in1022.0 mb - 0.00 in0.0 mm 0.11 in2.8 mm
09:50 PM 48.8°F9.3°C 47.2°F8.4°C 94% Calm Calm -- 30.18 in1022.0 mb - 0.01 in0.3 mm 0.12 in3.0 mm
10:00 PM 48.5°F9.2°C 46.9°F8.3°C 94% Calm Calm -- 30.18 in1022.0 mb - 0.00 in0.0 mm 0.12 in3.0 mm
10:10 PM 48.3°F9.1°C 46.9°F8.3°C 95% Calm Calm -- 30.19 in1022.4 mb - 0.00 in0.0 mm 0.12 in3.0 mm
10:20 PM 48.2°F9.0°C 46.8°F8.2°C 95% Calm Calm 2.3 mph3.7 kmh 30.19 in1022.4 mb - 0.00 in0.0 mm 0.12 in3.0 mm
10:30 PM 48.0°F8.9°C 46.6°F8.1°C 95% Calm Calm 1.2 mph1.9 kmh 30.19 in1022.4 mb - 0.00 in0.0 mm 0.12 in3.0 mm
10:40 PM 47.8°F8.8°C 46.4°F8.0°C 95% Calm Calm -- 30.20 in1022.7 mb - 0.01 in0.3 mm 0.13 in3.3 mm
10:50 PM 47.6°F8.7°C 46.2°F7.9°C 95% Calm Calm -- 30.20 in1022.7 mb - 0.01 in0.3 mm 0.13 in3.3 mm
11:00 PM 47.4°F8.6°C 46.0°F7.8°C 95% Calm Calm -- 30.20 in1022.7 mb - 0.00 in0.0 mm 0.13 in3.3 mm
11:10 PM 47.3°F8.5°C 45.9°F7.7°C 95% Calm Calm -- 30.19 in1022.4 mb - 0.01 in0.3 mm 0.14 in3.6 mm
11:20 PM 47.2°F8.4°C 46.1°F7.8°C 96% Calm Calm -- 30.20 in1022.7 mb - 0.00 in0.0 mm 0.14 in3.6 mm
11:30 PM 47.1°F8.4°C 45.7°F7.6°C 95% Calm Calm -- 30.19 in1022.4 mb - 0.01 in0.3 mm 0.15 in3.8 mm
11:40 PM 47.1°F8.4°C 45.7°F7.6°C 95% Calm Calm -- 30.19 in1022.4 mb - 0.00 in0.0 mm 0.15 in3.8 mm
11:50 PM 47.0°F8.3°C 45.9°F7.7°C 96% Calm Calm -- 30.19 in1022.4 mb - 0.00 in0.0 mm 0.15 in3.8 mm